sensor_id;sensor_type;location;lat;lon;timestamp;pressure;altitude;pressure_sealevel;temperature;humidity
50123;BME280;36021;48.670;6.184;2023-01-30T00:01:47;99929.56;;;1.59;100.00
50123;BME280;36021;48.670;6.184;2023-01-30T00:04:13;99936.50;;;1.42;100.00
50123;BME280;36021;48.670;6.184;2023-01-30T00:06:39;99944.66;;;1.42;100.00
50123;BME280;36021;48.670;6.184;2023-01-30T00:09:05;99953.00;;;1.47;100.00
50123;BME280;36021;48.670;6.184;2023-01-30T00:11:31;99950.28;;;1.53;100.00
50123;BME280;36021;48.670;6.184;2023-01-30T00:13:58;99968.84;;;1.63;100.00
50123;BME280;36021;48.670;6.184;2023-01-30T00:16:23;99972.59;;;1.62;100.00
50123;BME280;36021;48.670;6.184;2023-01-30T00:18:49;99974.22;;;1.83;100.00
50123;BME280;36021;48.670;6.184;2023-01-30T00:21:15;99982.13;;;1.84;100.00
50123;BME280;36021;48.670;6.184;2023-01-30T00:23:41;99987.94;;;1.94;100.00
50123;BME280;36021;48.670;6.184;2023-01-30T00:26:07;99989.19;;;1.98;100.00
50123;BME280;36021;48.670;6.184;2023-01-30T00:28:36;99985.41;;;2.06;100.00
50123;BME280;36021;48.670;6.184;2023-01-30T00:31:03;99985.38;;;2.13;100.00
50123;BME280;36021;48.670;6.184;2023-01-30T00:33:29;99986.75;;;2.28;100.00
50123;BME280;36021;48.670;6.184;2023-01-30T00:35:55;99993.19;;;2.34;100.00
50123;BME280;36021;48.670;6.184;2023-01-30T00:38:23;99981.50;;;2.27;100.00
50123;BME280;36021;48.670;6.184;2023-01-30T00:40:49;99992.22;;;2.22;100.00
50123;BME280;36021;48.670;6.184;2023-01-30T00:43:15;99995.97;;;2.21;100.00
50123;BME280;36021;48.670;6.184;2023-01-30T00:46:00;100009.41;;;2.16;100.00
50123;BME280;36021;48.670;6.184;2023-01-30T00:48:46;99995.16;;;2.14;100.00
50123;BME280;36021;48.670;6.184;2023-01-30T00:51:13;99986.88;;;2.02;100.00
50123;BME280;36021;48.670;6.184;2023-01-30T00:53:39;99991.44;;;2.08;100.00
50123;BME280;36021;48.670;6.184;2023-01-30T00:56:05;100005.88;;;2.08;100.00
50123;BME280;36021;48.670;6.184;2023-01-30T00:58:31;100022.63;;;2.05;100.00
50123;BME280;36021;48.670;6.184;2023-01-30T01:00:58;100011.75;;;2.05;100.00
50123;BME280;36021;48.670;6.184;2023-01-30T01:03:24;100000.91;;;1.99;100.00
50123;BME280;36021;48.670;6.184;2023-01-30T01:05:49;99985.66;;;1.91;100.00
50123;BME280;36021;48.670;6.184;2023-01-30T01:08:15;99983.81;;;1.85;100.00
50123;BME280;36021;48.670;6.184;2023-01-30T01:10:40;99989.25;;;1.85;100.00
50123;BME280;36021;48.670;6.184;2023-01-30T01:13:06;99988.00;;;1.81;100.00
50123;BME280;36021;48.670;6.184;2023-01-30T01:15:32;99969.03;;;1.68;100.00
50123;BME280;36021;48.670;6.184;2023-01-30T01:17:58;99972.22;;;1.52;100.00
50123;BME280;36021;48.670;6.184;2023-01-30T01:20:25;99960.94;;;1.48;100.00
50123;BME280;36021;48.670;6.184;2023-01-30T01:22:54;99943.63;;;1.43;100.00
50123;BME280;36021;48.670;6.184;2023-01-30T01:25:20;99939.47;;;1.34;100.00
50123;BME280;36021;48.670;6.184;2023-01-30T01:27:46;99935.31;;;1.18;100.00
50123;BME280;36021;48.670;6.184;2023-01-30T01:30:13;99941.38;;;1.27;100.00
50123;BME280;36021;48.670;6.184;2023-01-30T01:32:43;99927.16;;;1.25;100.00
50123;BME280;36021;48.670;6.184;2023-01-30T01:35:08;99945.94;;;1.33;100.00
50123;BME280;36021;48.670;6.184;2023-01-30T01:37:34;99961.00;;;1.16;100.00
50123;BME280;36021;48.670;6.184;2023-01-30T01:40:00;99955.34;;;1.37;100.00
50123;BME280;36021;48.670;6.184;2023-01-30T01:42:44;99954.66;;;1.48;100.00
50123;BME280;36021;48.670;6.184;2023-01-30T01:47:46;99939.94;;;1.75;100.00
50123;BME280;36021;48.670;6.184;2023-01-30T01:50:20;99934.03;;;1.91;100.00
50123;BME280;36021;48.670;6.184;2023-01-30T01:52:47;99922.56;;;1.89;100.00
50123;BME280;36021;48.670;6.184;2023-01-30T01:55:16;99922.72;;;1.94;100.00
50123;BME280;36021;48.670;6.184;2023-01-30T01:57:46;99910.53;;;2.03;100.00
50123;BME280;36021;48.670;6.184;2023-01-30T02:00:16;99917.50;;;1.93;100.00
50123;BME280;36021;48.670;6.184;2023-01-30T02:03:18;99906.78;;;2.04;100.00
50123;BME280;36021;48.670;6.184;2023-01-30T02:05:37;99886.88;;;2.10;100.00
50123;BME280;36021;48.670;6.184;2023-01-30T02:08:07;99882.59;;;1.90;100.00
50123;BME280;36021;48.670;6.184;2023-01-30T02:10:44;99882.75;;;2.01;100.00
50123;BME280;36021;48.670;6.184;2023-01-30T02:13:13;99872.19;;;1.80;100.00
50123;BME280;36021;48.670;6.184;2023-01-30T02:15:39;99848.72;;;1.92;100.00
50123;BME280;36021;48.670;6.184;2023-01-30T02:18:05;99867.91;;;1.66;100.00
50123;BME280;36021;48.670;6.184;2023-01-30T02:28:30;99809.44;;;1.57;100.00
50123;BME280;36021;48.670;6.184;2023-01-30T02:33:38;99813.25;;;1.81;100.00
50123;BME280;36021;48.670;6.184;2023-01-30T02:36:18;99799.22;;;1.84;100.00
50123;BME280;36021;48.670;6.184;2023-01-30T02:46:46;99810.28;;;1.89;100.00
50123;BME280;36021;48.670;6.184;2023-01-30T02:51:41;99795.06;;;2.13;100.00
50123;BME280;36021;48.670;6.184;2023-01-30T02:54:11;99798.78;;;2.18;100.00
50123;BME280;36021;48.670;6.184;2023-01-30T02:56:49;99820.63;;;2.30;100.00
50123;BME280;36021;48.670;6.184;2023-01-30T02:59:19;99830.84;;;2.34;100.00
50123;BME280;36021;48.670;6.184;2023-01-30T03:07:11;99846.69;;;2.44;100.00
50123;BME280;36021;48.670;6.184;2023-01-30T03:17:09;99858.16;;;2.46;100.00
50123;BME280;36021;48.670;6.184;2023-01-30T03:19:35;99853.84;;;2.38;100.00
50123;BME280;36021;48.670;6.184;2023-01-30T03:22:01;99853.94;;;2.50;100.00
50123;BME280;36021;48.670;6.184;2023-01-30T03:24:27;99835.84;;;2.37;100.00
50123;BME280;36021;48.670;6.184;2023-01-30T03:26:57;99835.78;;;2.19;100.00
50123;BME280;36021;48.670;6.184;2023-01-30T03:29:25;99834.03;;;2.00;100.00
50123;BME280;36021;48.670;6.184;2023-01-30T03:31:52;99826.91;;;2.05;100.00
50123;BME280;36021;48.670;6.184;2023-01-30T03:34:18;99831.00;;;2.15;100.00
50123;BME280;36021;48.670;6.184;2023-01-30T03:36:43;99826.84;;;2.12;100.00
50123;BME280;36021;48.670;6.184;2023-01-30T03:39:09;99825.56;;;2.15;100.00
50123;BME280;36021;48.670;6.184;2023-01-30T03:41:35;99824.00;;;2.00;100.00
50123;BME280;36021;48.670;6.184;2023-01-30T03:44:01;99826.47;;;2.08;100.00
50123;BME280;36021;48.670;6.184;2023-01-30T03:46:27;99824.38;;;2.04;100.00
50123;BME280;36021;48.670;6.184;2023-01-30T03:48:54;99838.75;;;1.86;100.00
50123;BME280;36021;48.670;6.184;2023-01-30T03:51:20;99841.13;;;1.70;100.00
50123;BME280;36021;48.670;6.184;2023-01-30T03:53:46;99850.31;;;1.69;100.00
50123;BME280;36021;48.670;6.184;2023-01-30T03:56:12;99844.31;;;1.60;100.00
50123;BME280;36021;48.670;6.184;2023-01-30T03:58:38;99848.47;;;1.63;100.00
50123;BME280;36021;48.670;6.184;2023-01-30T04:01:27;99843.44;;;1.66;100.00
50123;BME280;36021;48.670;6.184;2023-01-30T04:03:52;99839.63;;;1.74;100.00
50123;BME280;36021;48.670;6.184;2023-01-30T04:06:18;99843.69;;;1.58;100.00
50123;BME280;36021;48.670;6.184;2023-01-30T04:08:43;99840.81;;;1.53;100.00
50123;BME280;36021;48.670;6.184;2023-01-30T04:11:19;99830.53;;;1.55;100.00
50123;BME280;36021;48.670;6.184;2023-01-30T04:13:45;99836.13;;;1.67;100.00
50123;BME280;36021;48.670;6.184;2023-01-30T04:16:21;99843.06;;;1.63;100.00
50123;BME280;36021;48.670;6.184;2023-01-30T04:19:16;99839.81;;;1.79;100.00
50123;BME280;36021;48.670;6.184;2023-01-30T04:21:42;99841.25;;;1.81;100.00
50123;BME280;36021;48.670;6.184;2023-01-30T04:24:07;99843.94;;;1.88;100.00
50123;BME280;36021;48.670;6.184;2023-01-30T04:26:33;99833.31;;;1.86;100.00
50123;BME280;36021;48.670;6.184;2023-01-30T04:29:02;99841.25;;;1.81;100.00
50123;BME280;36021;48.670;6.184;2023-01-30T04:31:29;99835.63;;;1.83;100.00
50123;BME280;36021;48.670;6.184;2023-01-30T04:34:06;99823.88;;;1.89;100.00
50123;BME280;36021;48.670;6.184;2023-01-30T04:36:33;99816.22;;;1.79;100.00
50123;BME280;36021;48.670;6.184;2023-01-30T04:39:01;99816.97;;;1.93;100.00
50123;BME280;36021;48.670;6.184;2023-01-30T04:41:28;99823.56;;;2.03;100.00
50123;BME280;36021;48.670;6.184;2023-01-30T04:43:58;99819.78;;;2.04;100.00
50123;BME280;36021;48.670;6.184;2023-01-30T04:46:59;99800.22;;;1.96;100.00
50123;BME280;36021;48.670;6.184;2023-01-30T04:49:24;99791.03;;;1.90;100.00
50123;BME280;36021;48.670;6.184;2023-01-30T04:51:52;99789.09;;;1.97;100.00
50123;BME280;36021;48.670;6.184;2023-01-30T04:54:18;99789.00;;;1.86;100.00
50123;BME280;36021;48.670;6.184;2023-01-30T04:56:43;99788.94;;;1.92;100.00
50123;BME280;36021;48.670;6.184;2023-01-30T04:59:09;99780.09;;;1.97;100.00
50123;BME280;36021;48.670;6.184;2023-01-30T05:01:42;99766.91;;;2.00;100.00
50123;BME280;36021;48.670;6.184;2023-01-30T05:04:07;99756.88;;;1.76;100.00
50123;BME280;36021;48.670;6.184;2023-01-30T05:06:33;99750.81;;;1.74;100.00
50123;BME280;36021;48.670;6.184;2023-01-30T05:08:59;99766.47;;;1.79;100.00
50123;BME280;36021;48.670;6.184;2023-01-30T05:11:26;99782.81;;;1.72;100.00
50123;BME280;36021;48.670;6.184;2023-01-30T05:13:51;99802.88;;;1.71;100.00
50123;BME280;36021;48.670;6.184;2023-01-30T05:16:17;99793.41;;;1.80;100.00
50123;BME280;36021;48.670;6.184;2023-01-30T05:18:43;99800.31;;;1.83;100.00
50123;BME280;36021;48.670;6.184;2023-01-30T05:21:18;99802.78;;;1.84;100.00
50123;BME280;36021;48.670;6.184;2023-01-30T05:23:45;99805.28;;;1.86;100.00
50123;BME280;36021;48.670;6.184;2023-01-30T05:26:11;99799.03;;;1.85;100.00
50123;BME280;36021;48.670;6.184;2023-01-30T05:28:36;99817.44;;;1.77;100.00
50123;BME280;36021;48.670;6.184;2023-01-30T05:31:04;99783.38;;;1.81;100.00
50123;BME280;36021;48.670;6.184;2023-01-30T05:33:30;99786.66;;;1.89;100.00
50123;BME280;36021;48.670;6.184;2023-01-30T05:35:56;99796.59;;;2.02;100.00
50123;BME280;36021;48.670;6.184;2023-01-30T05:38:22;99794.00;;;1.89;100.00
50123;BME280;36021;48.670;6.184;2023-01-30T05:41:00;99786.91;;;1.81;100.00
50123;BME280;36021;48.670;6.184;2023-01-30T05:43:26;99785.47;;;1.79;100.00
50123;BME280;36021;48.670;6.184;2023-01-30T05:45:52;99785.53;;;1.72;100.00
50123;BME280;36021;48.670;6.184;2023-01-30T05:48:18;99775.44;;;1.79;100.00
50123;BME280;36021;48.670;6.184;2023-01-30T05:50:45;99753.44;;;1.87;100.00
50123;BME280;36021;48.670;6.184;2023-01-30T05:53:13;99747.31;;;1.67;100.00
50123;BME280;36021;48.670;6.184;2023-01-30T05:55:40;99737.22;;;1.74;100.00
50123;BME280;36021;48.670;6.184;2023-01-30T05:58:08;99735.63;;;1.67;100.00
50123;BME280;36021;48.670;6.184;2023-01-30T06:00:34;99736.03;;;1.70;100.00
50123;BME280;36021;48.670;6.184;2023-01-30T06:03:01;99742.16;;;1.59;100.00
50123;BME280;36021;48.670;6.184;2023-01-30T06:05:27;99749.66;;;1.64;100.00
50123;BME280;36021;48.670;6.184;2023-01-30T06:07:52;99745.22;;;1.69;100.00
50123;BME280;36021;48.670;6.184;2023-01-30T06:10:18;99749.75;;;1.75;100.00
50123;BME280;36021;48.670;6.184;2023-01-30T06:12:43;99764.59;;;1.79;100.00
50123;BME280;36021;48.670;6.184;2023-01-30T06:15:09;99760.19;;;1.78;100.00
50123;BME280;36021;48.670;6.184;2023-01-30T06:17:35;99751.09;;;1.66;100.00
50123;BME280;36021;48.670;6.184;2023-01-30T06:20:00;99742.31;;;1.64;100.00
50123;BME280;36021;48.670;6.184;2023-01-30T06:22:26;99738.56;;;1.65;100.00
50123;BME280;36021;48.670;6.184;2023-01-30T06:24:52;99718.66;;;1.71;100.00
50123;BME280;36021;48.670;6.184;2023-01-30T06:27:17;99723.03;;;1.72;100.00
50123;BME280;36021;48.670;6.184;2023-01-30T06:29:43;99729.75;;;1.94;100.00
50123;BME280;36021;48.670;6.184;2023-01-30T06:32:10;99728.25;;;1.98;100.00
50123;BME280;36021;48.670;6.184;2023-01-30T06:34:36;99715.28;;;2.00;100.00
50123;BME280;36021;48.670;6.184;2023-01-30T06:37:02;99723.16;;;2.08;100.00
50123;BME280;36021;48.670;6.184;2023-01-30T06:39:27;99726.41;;;2.17;100.00
50123;BME280;36021;48.670;6.184;2023-01-30T06:41:53;99733.06;;;2.21;100.00
50123;BME280;36021;48.670;6.184;2023-01-30T06:44:18;99728.63;;;2.27;100.00
50123;BME280;36021;48.670;6.184;2023-01-30T06:46:44;99729.19;;;2.35;100.00
50123;BME280;36021;48.670;6.184;2023-01-30T06:49:09;99716.38;;;2.18;100.00
50123;BME280;36021;48.670;6.184;2023-01-30T06:51:36;99725.69;;;2.03;100.00
50123;BME280;36021;48.670;6.184;2023-01-30T06:54:02;99735.25;;;2.13;100.00
50123;BME280;36021;48.670;6.184;2023-01-30T06:56:29;99732.81;;;2.04;100.00
50123;BME280;36021;48.670;6.184;2023-01-30T06:58:55;99754.09;;;2.07;100.00
50123;BME280;36021;48.670;6.184;2023-01-30T07:01:21;99757.88;;;2.06;100.00
50123;BME280;36021;48.670;6.184;2023-01-30T07:03:47;99775.84;;;2.07;100.00
50123;BME280;36021;48.670;6.184;2023-01-30T07:06:13;99776.19;;;2.18;100.00
50123;BME280;36021;48.670;6.184;2023-01-30T07:08:39;99756.91;;;2.26;100.00
50123;BME280;36021;48.670;6.184;2023-01-30T07:11:05;99767.66;;;2.14;100.00
50123;BME280;36021;48.670;6.184;2023-01-30T07:13:30;99784.94;;;2.20;100.00
50123;BME280;36021;48.670;6.184;2023-01-30T07:15:56;99784.03;;;2.32;100.00
50123;BME280;36021;48.670;6.184;2023-01-30T07:18:22;99773.44;;;2.42;100.00
50123;BME280;36021;48.670;6.184;2023-01-30T07:20:48;99773.69;;;2.41;100.00
50123;BME280;36021;48.670;6.184;2023-01-30T07:23:14;99778.59;;;2.50;100.00
50123;BME280;36021;48.670;6.184;2023-01-30T07:25:40;99784.66;;;2.52;100.00
50123;BME280;36021;48.670;6.184;2023-01-30T07:28:05;99787.16;;;2.54;100.00
50123;BME280;36021;48.670;6.184;2023-01-30T07:30:32;99799.94;;;2.53;100.00
50123;BME280;36021;48.670;6.184;2023-01-30T07:33:02;99801.34;;;2.56;100.00
50123;BME280;36021;48.670;6.184;2023-01-30T07:35:29;99796.81;;;2.50;100.00
50123;BME280;36021;48.670;6.184;2023-01-30T07:37:55;99799.25;;;2.58;100.00
50123;BME280;36021;48.670;6.184;2023-01-30T07:40:21;99803.63;;;2.59;100.00
50123;BME280;36021;48.670;6.184;2023-01-30T07:43:06;99788.38;;;2.58;100.00
50123;BME280;36021;48.670;6.184;2023-01-30T07:48:00;99794.16;;;2.68;100.00
50123;BME280;36021;48.670;6.184;2023-01-30T07:50:27;99796.25;;;2.66;100.00
50123;BME280;36021;48.670;6.184;2023-01-30T07:52:52;99805.16;;;2.55;100.00
50123;BME280;36021;48.670;6.184;2023-01-30T07:55:20;99826.41;;;2.65;100.00
50123;BME280;36021;48.670;6.184;2023-01-30T07:57:48;99825.91;;;2.49;100.00
50123;BME280;36021;48.670;6.184;2023-01-30T08:00:13;99839.88;;;2.53;100.00
50123;BME280;36021;48.670;6.184;2023-01-30T08:02:39;99844.34;;;2.47;100.00
50123;BME280;36021;48.670;6.184;2023-01-30T08:05:05;99825.69;;;2.51;100.00
50123;BME280;36021;48.670;6.184;2023-01-30T08:07:30;99826.16;;;2.48;100.00
50123;BME280;36021;48.670;6.184;2023-01-30T08:09:56;99829.75;;;2.42;100.00
50123;BME280;36021;48.670;6.184;2023-01-30T08:12:21;99837.53;;;2.38;100.00
50123;BME280;36021;48.670;6.184;2023-01-30T08:14:47;99840.91;;;2.34;100.00
50123;BME280;36021;48.670;6.184;2023-01-30T08:17:12;99849.50;;;2.31;100.00
50123;BME280;36021;48.670;6.184;2023-01-30T08:19:38;99847.22;;;2.28;100.00
50123;BME280;36021;48.670;6.184;2023-01-30T08:22:03;99867.09;;;2.28;100.00
50123;BME280;36021;48.670;6.184;2023-01-30T08:24:29;99848.06;;;2.28;100.00
50123;BME280;36021;48.670;6.184;2023-01-30T08:26:54;99853.00;;;2.38;100.00
50123;BME280;36021;48.670;6.184;2023-01-30T08:29:20;99844.06;;;2.31;100.00
50123;BME280;36021;48.670;6.184;2023-01-30T08:31:46;99838.47;;;2.26;100.00
50123;BME280;36021;48.670;6.184;2023-01-30T08:34:11;99821.72;;;2.29;100.00
50123;BME280;36021;48.670;6.184;2023-01-30T08:36:37;99834.56;;;2.40;100.00
50123;BME280;36021;48.670;6.184;2023-01-30T08:39:02;99837.41;;;2.51;100.00
50123;BME280;36021;48.670;6.184;2023-01-30T08:41:28;99823.13;;;2.56;100.00
50123;BME280;36021;48.670;6.184;2023-01-30T08:43:53;99817.16;;;2.66;100.00
50123;BME280;36021;48.670;6.184;2023-01-30T08:46:19;99813.06;;;2.81;100.00
50123;BME280;36021;48.670;6.184;2023-01-30T08:48:46;99810.25;;;2.88;100.00
50123;BME280;36021;48.670;6.184;2023-01-30T08:51:14;99817.75;;;2.92;100.00
50123;BME280;36021;48.670;6.184;2023-01-30T08:53:42;99811.94;;;3.07;100.00
50123;BME280;36021;48.670;6.184;2023-01-30T08:56:08;99807.59;;;2.99;100.00
50123;BME280;36021;48.670;6.184;2023-01-30T08:58:35;99807.00;;;3.15;100.00
50123;BME280;36021;48.670;6.184;2023-01-30T09:01:03;99793.78;;;3.01;100.00
50123;BME280;36021;48.670;6.184;2023-01-30T09:03:30;99797.91;;;3.22;100.00
50123;BME280;36021;48.670;6.184;2023-01-30T09:05:56;99795.66;;;3.37;100.00
50123;BME280;36021;48.670;6.184;2023-01-30T09:08:21;99788.56;;;3.47;100.00
50123;BME280;36021;48.670;6.184;2023-01-30T09:10:47;99783.50;;;3.51;100.00
50123;BME280;36021;48.670;6.184;2023-01-30T09:13:12;99790.78;;;3.39;100.00
50123;BME280;36021;48.670;6.184;2023-01-30T09:15:40;99786.56;;;3.43;100.00
50123;BME280;36021;48.670;6.184;2023-01-30T09:18:06;99795.00;;;3.53;100.00
50123;BME280;36021;48.670;6.184;2023-01-30T09:20:31;99802.97;;;3.36;100.00
50123;BME280;36021;48.670;6.184;2023-01-30T09:22:59;99783.38;;;3.28;100.00
50123;BME280;36021;48.670;6.184;2023-01-30T09:25:25;99793.81;;;3.31;100.00
50123;BME280;36021;48.670;6.184;2023-01-30T09:27:51;99800.47;;;3.35;100.00
50123;BME280;36021;48.670;6.184;2023-01-30T09:30:17;99801.72;;;3.21;100.00
50123;BME280;36021;48.670;6.184;2023-01-30T09:32:43;99808.50;;;3.30;100.00
50123;BME280;36021;48.670;6.184;2023-01-30T09:35:09;99802.16;;;3.36;100.00
50123;BME280;36021;48.670;6.184;2023-01-30T09:37:35;99799.63;;;3.34;100.00
50123;BME280;36021;48.670;6.184;2023-01-30T09:40:00;99808.91;;;3.33;100.00
50123;BME280;36021;48.670;6.184;2023-01-30T09:45:22;99790.63;;;3.52;100.00
50123;BME280;36021;48.670;6.184;2023-01-30T09:52:55;99766.19;;;3.87;100.00
50123;BME280;36021;48.670;6.184;2023-01-30T09:55:26;99771.69;;;3.98;100.00
50123;BME280;36021;48.670;6.184;2023-01-30T09:57:55;99762.47;;;4.22;100.00
50123;BME280;36021;48.670;6.184;2023-01-30T10:00:24;99760.56;;;4.11;100.00
50123;BME280;36021;48.670;6.184;2023-01-30T10:02:56;99770.28;;;4.07;100.00
50123;BME280;36021;48.670;6.184;2023-01-30T10:06:08;99779.41;;;4.01;100.00
50123;BME280;36021;48.670;6.184;2023-01-30T10:18:50;99786.38;;;3.97;100.00
50123;BME280;36021;48.670;6.184;2023-01-30T10:21:23;99791.38;;;4.00;100.00
50123;BME280;36021;48.670;6.184;2023-01-30T10:26:28;99784.41;;;4.16;100.00
50123;BME280;36021;48.670;6.184;2023-01-30T10:31:23;99768.56;;;4.71;100.00
50123;BME280;36021;48.670;6.184;2023-01-30T10:33:54;99756.16;;;4.92;100.00
50123;BME280;36021;48.670;6.184;2023-01-30T10:36:24;99754.13;;;4.99;100.00
50123;BME280;36021;48.670;6.184;2023-01-30T10:38:51;99754.91;;;5.22;100.00
50123;BME280;36021;48.670;6.184;2023-01-30T10:41:34;99766.22;;;5.14;100.00
50123;BME280;36021;48.670;6.184;2023-01-30T10:44:02;99763.34;;;5.21;100.00
50123;BME280;36021;48.670;6.184;2023-01-30T10:49:30;99757.38;;;4.84;100.00
50123;BME280;36021;48.670;6.184;2023-01-30T11:00:11;99729.00;;;4.85;100.00
50123;BME280;36021;48.670;6.184;2023-01-30T11:02:42;99729.38;;;4.77;100.00
50123;BME280;36021;48.670;6.184;2023-01-30T11:05:17;99726.28;;;4.62;100.00
50123;BME280;36021;48.670;6.184;2023-01-30T11:07:44;99731.91;;;4.44;100.00
50123;BME280;36021;48.670;6.184;2023-01-30T11:10:21;99731.19;;;4.25;100.00
50123;BME280;36021;48.670;6.184;2023-01-30T11:12:50;99743.13;;;4.12;100.00
50123;BME280;36021;48.670;6.184;2023-01-30T11:15:17;99741.34;;;3.95;100.00
50123;BME280;36021;48.670;6.184;2023-01-30T11:17:43;99732.47;;;4.11;100.00
50123;BME280;36021;48.670;6.184;2023-01-30T11:22:35;99729.97;;;3.98;100.00
50123;BME280;36021;48.670;6.184;2023-01-30T11:25:05;99723.88;;;3.84;100.00
50123;BME280;36021;48.670;6.184;2023-01-30T11:27:32;99742.03;;;3.90;100.00
50123;BME280;36021;48.670;6.184;2023-01-30T11:32:54;99738.34;;;3.96;100.00
50123;BME280;36021;48.670;6.184;2023-01-30T11:35:29;99737.03;;;3.87;100.00
50123;BME280;36021;48.670;6.184;2023-01-30T11:38:12;99722.09;;;3.90;100.00
50123;BME280;36021;48.670;6.184;2023-01-30T11:40:38;99727.34;;;3.91;100.00
50123;BME280;36021;48.670;6.184;2023-01-30T11:43:08;99726.81;;;3.71;100.00
50123;BME280;36021;48.670;6.184;2023-01-30T11:45:45;99719.09;;;3.68;100.00
50123;BME280;36021;48.670;6.184;2023-01-30T11:48:13;99724.44;;;3.63;100.00
50123;BME280;36021;48.670;6.184;2023-01-30T11:50:41;99719.09;;;3.68;100.00
50123;BME280;36021;48.670;6.184;2023-01-30T11:53:24;99718.63;;;3.59;100.00
50123;BME280;36021;48.670;6.184;2023-01-30T11:55:54;99727.88;;;3.70;100.00
50123;BME280;36021;48.670;6.184;2023-01-30T11:58:21;99736.19;;;3.75;100.00
50123;BME280;36021;48.670;6.184;2023-01-30T12:00:48;99732.16;;;3.66;100.00
50123;BME280;36021;48.670;6.184;2023-01-30T12:03:18;99734.88;;;3.66;100.00
50123;BME280;36021;48.670;6.184;2023-01-30T12:05:47;99732.06;;;3.73;100.00
50123;BME280;36021;48.670;6.184;2023-01-30T12:08:58;99746.16;;;3.81;100.00
50123;BME280;36021;48.670;6.184;2023-01-30T12:10:58;99738.34;;;3.96;100.00
50123;BME280;36021;48.670;6.184;2023-01-30T12:13:31;99714.06;;;3.95;100.00
50123;BME280;36021;48.670;6.184;2023-01-30T12:18:45;99724.03;;;4.01;100.00
50123;BME280;36021;48.670;6.184;2023-01-30T12:21:16;99725.22;;;4.05;100.00
50123;BME280;36021;48.670;6.184;2023-01-30T12:23:53;99716.06;;;3.76;100.00
50123;BME280;36021;48.670;6.184;2023-01-30T12:26:34;99716.06;;;3.99;100.00
50123;BME280;36021;48.670;6.184;2023-01-30T12:29:17;99714.91;;;3.95;100.00
50123;BME280;36021;48.670;6.184;2023-01-30T12:31:48;99707.56;;;3.96;100.00
50123;BME280;36021;48.670;6.184;2023-01-30T12:34:14;99698.78;;;4.05;100.00
50123;BME280;36021;48.670;6.184;2023-01-30T12:36:42;99712.31;;;4.12;100.00
50123;BME280;36021;48.670;6.184;2023-01-30T12:39:26;99705.06;;;4.17;100.00
50123;BME280;36021;48.670;6.184;2023-01-30T12:44:46;99704.50;;;4.15;100.00
50123;BME280;36021;48.670;6.184;2023-01-30T12:50:10;99713.97;;;4.25;100.00
50123;BME280;36021;48.670;6.184;2023-01-30T12:57:37;99701.28;;;4.30;100.00
50123;BME280;36021;48.670;6.184;2023-01-30T13:02:57;99718.59;;;4.36;100.00
50123;BME280;36021;48.670;6.184;2023-01-30T13:08:05;99696.03;;;4.52;100.00
50123;BME280;36021;48.670;6.184;2023-01-30T13:10:35;99692.38;;;4.58;100.00
50123;BME280;36021;48.670;6.184;2023-01-30T13:15:35;99679.00;;;4.96;100.00
50123;BME280;36021;48.670;6.184;2023-01-30T13:23:06;99673.09;;;5.16;100.00
50123;BME280;36021;48.670;6.184;2023-01-30T13:25:41;99684.16;;;5.09;100.00
50123;BME280;36021;48.670;6.184;2023-01-30T13:28:20;99665.41;;;5.01;100.00
50123;BME280;36021;48.670;6.184;2023-01-30T13:30:48;99684.94;;;4.93;100.00
50123;BME280;36021;48.670;6.184;2023-01-30T13:33:36;99678.06;;;4.79;100.00
50123;BME280;36021;48.670;6.184;2023-01-30T13:36:04;99669.53;;;4.87;100.00
50123;BME280;36021;48.670;6.184;2023-01-30T13:38:32;99676.53;;;4.83;100.00
50123;BME280;36021;48.670;6.184;2023-01-30T13:40:59;99685.91;;;4.87;100.00
50123;BME280;36021;48.670;6.184;2023-01-30T13:45:53;99690.66;;;4.80;100.00
50123;BME280;36021;48.670;6.184;2023-01-30T13:48:38;99695.78;;;4.77;100.00
50123;BME280;36021;48.670;6.184;2023-01-30T13:51:15;99702.56;;;4.74;100.00
50123;BME280;36021;48.670;6.184;2023-01-30T13:53:46;99701.38;;;4.70;100.00
50123;BME280;36021;48.670;6.184;2023-01-30T14:01:20;99708.94;;;4.68;100.00
50123;BME280;36021;48.670;6.184;2023-01-30T14:03:47;99717.41;;;4.66;100.00
50123;BME280;36021;48.670;6.184;2023-01-30T14:06:24;99712.78;;;4.67;100.00
50123;BME280;36021;48.670;6.184;2023-01-30T14:08:52;99722.59;;;4.68;100.00
50123;BME280;36021;48.670;6.184;2023-01-30T14:13:51;99725.22;;;4.63;100.00
50123;BME280;36021;48.670;6.184;2023-01-30T14:16:17;99727.47;;;4.66;100.00
50123;BME280;36021;48.670;6.184;2023-01-30T14:18:44;99717.13;;;4.68;100.00
50123;BME280;36021;48.670;6.184;2023-01-30T14:23:41;99728.53;;;4.65;100.00
50123;BME280;36021;48.670;6.184;2023-01-30T14:26:43;99715.75;;;4.54;100.00
50123;BME280;36021;48.670;6.184;2023-01-30T14:29:06;99725.22;;;4.63;100.00
50123;BME280;36021;48.670;6.184;2023-01-30T14:31:48;99727.59;;;4.71;100.00
50123;BME280;36021;48.670;6.184;2023-01-30T14:35:01;99743.50;;;4.62;100.00
50123;BME280;36021;48.670;6.184;2023-01-30T14:37:00;99746.13;;;4.57;100.00
50123;BME280;36021;48.670;6.184;2023-01-30T14:39:36;99747.66;;;4.65;100.00
50123;BME280;36021;48.670;6.184;2023-01-30T14:42:21;99741.34;;;4.76;100.00
50123;BME280;36021;48.670;6.184;2023-01-30T14:47:21;99744.09;;;4.76;100.00
50123;BME280;36021;48.670;6.184;2023-01-30T14:49:47;99745.63;;;4.72;100.00
50123;BME280;36021;48.670;6.184;2023-01-30T14:52:21;99748.59;;;4.82;100.00
50123;BME280;36021;48.670;6.184;2023-01-30T14:54:49;99756.19;;;4.80;100.00
50123;BME280;36021;48.670;6.184;2023-01-30T14:57:19;99764.50;;;4.85;100.00
50123;BME280;36021;48.670;6.184;2023-01-30T14:59:47;99774.69;;;4.78;100.00
50123;BME280;36021;48.670;6.184;2023-01-30T15:07:12;99775.66;;;4.72;100.00
50123;BME280;36021;48.670;6.184;2023-01-30T15:09:41;99787.19;;;4.74;100.00
50123;BME280;36021;48.670;6.184;2023-01-30T15:12:19;99786.00;;;4.70;100.00
50123;BME280;36021;48.670;6.184;2023-01-30T15:20:04;99803.78;;;4.49;100.00